<?xml version="1.0" encoding="UTF-8" standalone="no" ?>
<gpx xmlns="http://www.topografix.com/GPX/1/1" xmlns:xsi="http://www.w3.org/2001/XMLSchema-instance" xsi:schemaLocation="http://www.topografix.com/GPX/1/1 http://www.topografix.com/GPX/1/1/gpx.xsd" version="1.1" creator="VisuGPX - https://www.visugpx.com">
  <metadata>
    <name>Mornant Rouge n°161 Par Combes et par vaux</name>
    <desc><![CDATA[

]]></desc>
  </metadata>
  <trk>
    <name><![CDATA[Mornant Rouge n°161 Par Combes et par vaux]]></name>
    <trkseg>
      <trkpt lat="45.61739" lon="4.67329">
        <ele>370.73</ele>
        <time>2016-12-16T14:46:55Z</time>
      </trkpt>
      <trkpt lat="45.61742" lon="4.67328">
        <ele>370.73</ele>
        <time>2016-12-16T14:47:18Z</time>
      </trkpt>
      <trkpt lat="45.61745" lon="4.67333">
        <ele>236.62</ele>
        <time>2016-12-17T07:24:54Z</time>
      </trkpt>
      <trkpt lat="45.61733" lon="4.67321">
        <ele>237.1</ele>
        <time>2016-12-17T07:25:02Z</time>
      </trkpt>
      <trkpt lat="45.6174" lon="4.67305">
        <ele>241.43</ele>
        <time>2016-12-17T07:25:06Z</time>
      </trkpt>
      <trkpt lat="45.61749" lon="4.67295">
        <ele>252.96</ele>
        <time>2016-12-17T07:25:09Z</time>
      </trkpt>
      <trkpt lat="45.61755" lon="4.6729">
        <ele>260.17</ele>
        <time>2016-12-17T07:25:11Z</time>
      </trkpt>
      <trkpt lat="45.61796" lon="4.67287">
        <ele>295.74</ele>
        <time>2016-12-17T07:25:23Z</time>
      </trkpt>
      <trkpt lat="45.6182" lon="4.67285">
        <ele>304.88</ele>
        <time>2016-12-17T07:25:31Z</time>
      </trkpt>
      <trkpt lat="45.61838" lon="4.67278">
        <ele>316.89</ele>
        <time>2016-12-17T07:25:37Z</time>
      </trkpt>
      <trkpt lat="45.61857" lon="4.6726">
        <ele>321.22</ele>
        <time>2016-12-17T07:25:45Z</time>
      </trkpt>
      <trkpt lat="45.61871" lon="4.67243">
        <ele>330.83</ele>
        <time>2016-12-17T07:25:51Z</time>
      </trkpt>
      <trkpt lat="45.6189" lon="4.672">
        <ele>342.37</ele>
        <time>2016-12-17T07:26:04Z</time>
      </trkpt>
      <trkpt lat="45.6193" lon="4.67143">
        <ele>351.02</ele>
        <time>2016-12-17T07:26:24Z</time>
      </trkpt>
      <trkpt lat="45.61938" lon="4.67115">
        <ele>356.79</ele>
        <time>2016-12-17T07:26:31Z</time>
      </trkpt>
      <trkpt lat="45.61945" lon="4.67068">
        <ele>360.63</ele>
        <time>2016-12-17T07:26:43Z</time>
      </trkpt>
      <trkpt lat="45.61984" lon="4.67061">
        <ele>379.86</ele>
        <time>2016-12-17T07:34:39Z</time>
      </trkpt>
      <trkpt lat="45.61955" lon="4.67069">
        <ele>376.01</ele>
        <time>2016-12-17T07:35:59Z</time>
      </trkpt>
      <trkpt lat="45.61921" lon="4.66986">
        <ele>370.73</ele>
        <time>2016-12-17T07:36:23Z</time>
      </trkpt>
      <trkpt lat="45.61871" lon="4.66979">
        <ele>365.44</ele>
        <time>2016-12-17T07:36:29Z</time>
      </trkpt>
      <trkpt lat="45.61828" lon="4.66974">
        <ele>358.23</ele>
        <time>2016-12-17T07:36:37Z</time>
      </trkpt>
      <trkpt lat="45.61897" lon="4.66844">
        <ele>348.62</ele>
        <time>2016-12-17T07:36:59Z</time>
      </trkpt>
      <trkpt lat="45.61884" lon="4.66786">
        <ele>345.73</ele>
        <time>2016-12-17T07:37:10Z</time>
      </trkpt>
      <trkpt lat="45.61817" lon="4.66831">
        <ele>341.89</ele>
        <time>2016-12-17T07:37:25Z</time>
      </trkpt>
      <trkpt lat="45.61748" lon="4.66855">
        <ele>341.41</ele>
        <time>2016-12-17T07:37:42Z</time>
      </trkpt>
      <trkpt lat="45.61725" lon="4.66865">
        <ele>340.44</ele>
        <time>2016-12-17T07:37:49Z</time>
      </trkpt>
      <trkpt lat="45.61682" lon="4.66917">
        <ele>341.89</ele>
        <time>2016-12-17T07:38:07Z</time>
      </trkpt>
      <trkpt lat="45.61554" lon="4.67008">
        <ele>339.48</ele>
        <time>2016-12-17T07:39:54Z</time>
      </trkpt>
      <trkpt lat="45.61525" lon="4.66934">
        <ele>343.81</ele>
        <time>2016-12-17T07:40:11Z</time>
      </trkpt>
      <trkpt lat="45.61556" lon="4.66952">
        <ele>349.58</ele>
        <time>2016-12-17T07:40:32Z</time>
      </trkpt>
      <trkpt lat="45.61612" lon="4.66863">
        <ele>361.59</ele>
        <time>2016-12-17T07:41:26Z</time>
      </trkpt>
      <trkpt lat="45.61661" lon="4.66732">
        <ele>367.84</ele>
        <time>2016-12-17T07:42:11Z</time>
      </trkpt>
      <trkpt lat="45.6174" lon="4.66665">
        <ele>368.8</ele>
        <time>2016-12-17T07:42:43Z</time>
      </trkpt>
      <trkpt lat="45.61703" lon="4.66519">
        <ele>377.94</ele>
        <time>2016-12-17T07:43:31Z</time>
      </trkpt>
      <trkpt lat="45.61733" lon="4.66396">
        <ele>380.34</ele>
        <time>2016-12-17T07:44:05Z</time>
      </trkpt>
      <trkpt lat="45.61791" lon="4.66213">
        <ele>387.55</ele>
        <time>2016-12-17T07:45:22Z</time>
      </trkpt>
      <trkpt lat="45.61727" lon="4.66186">
        <ele>381.3</ele>
        <time>2016-12-17T07:46:44Z</time>
      </trkpt>
      <trkpt lat="45.61672" lon="4.65907">
        <ele>390.91</ele>
        <time>2016-12-17T07:47:55Z</time>
      </trkpt>
      <trkpt lat="45.61676" lon="4.6582">
        <ele>388.51</ele>
        <time>2016-12-17T07:48:13Z</time>
      </trkpt>
      <trkpt lat="45.61678" lon="4.65776">
        <ele>384.18</ele>
        <time>2016-12-17T07:48:22Z</time>
      </trkpt>
      <trkpt lat="45.61676" lon="4.65755">
        <ele>383.7</ele>
        <time>2016-12-17T07:48:30Z</time>
      </trkpt>
      <trkpt lat="45.61618" lon="4.65655">
        <ele>397.16</ele>
        <time>2016-12-17T07:49:25Z</time>
      </trkpt>
      <trkpt lat="45.61593" lon="4.65673">
        <ele>398.6</ele>
        <time>2016-12-17T07:50:00Z</time>
      </trkpt>
      <trkpt lat="45.6155" lon="4.65648">
        <ele>402.45</ele>
        <time>2016-12-17T07:50:33Z</time>
      </trkpt>
      <trkpt lat="45.61502" lon="4.65648">
        <ele>403.89</ele>
        <time>2016-12-17T07:51:43Z</time>
      </trkpt>
      <trkpt lat="45.61497" lon="4.65618">
        <ele>403.89</ele>
        <time>2016-12-17T07:51:54Z</time>
      </trkpt>
      <trkpt lat="45.61471" lon="4.65613">
        <ele>400.53</ele>
        <time>2016-12-17T07:52:05Z</time>
      </trkpt>
      <trkpt lat="45.6146" lon="4.6561">
        <ele>396.2</ele>
        <time>2016-12-17T07:52:10Z</time>
      </trkpt>
      <trkpt lat="45.61281" lon="4.65539">
        <ele>400.05</ele>
        <time>2016-12-17T07:53:12Z</time>
      </trkpt>
      <trkpt lat="45.6128" lon="4.65459">
        <ele>403.89</ele>
        <time>2016-12-17T07:53:47Z</time>
      </trkpt>
      <trkpt lat="45.61024" lon="4.65346">
        <ele>412.06</ele>
        <time>2016-12-17T07:56:15Z</time>
      </trkpt>
      <trkpt lat="45.61252" lon="4.65445">
        <ele>404.37</ele>
        <time>2016-12-17T08:06:49Z</time>
      </trkpt>
      <trkpt lat="45.61033" lon="4.65348">
        <ele>410.14</ele>
        <time>2016-12-17T08:08:05Z</time>
      </trkpt>
      <trkpt lat="45.60863" lon="4.65311">
        <ele>407.26</ele>
        <time>2016-12-17T08:08:51Z</time>
      </trkpt>
      <trkpt lat="45.6081" lon="4.65303">
        <ele>403.41</ele>
        <time>2016-12-17T08:09:00Z</time>
      </trkpt>
      <trkpt lat="45.60687" lon="4.65262">
        <ele>393.32</ele>
        <time>2016-12-17T08:09:21Z</time>
      </trkpt>
      <trkpt lat="45.60645" lon="4.65247">
        <ele>389.95</ele>
        <time>2016-12-17T08:09:27Z</time>
      </trkpt>
      <trkpt lat="45.60567" lon="4.65214">
        <ele>382.74</ele>
        <time>2016-12-17T08:09:40Z</time>
      </trkpt>
      <trkpt lat="45.60549" lon="4.65203">
        <ele>378.42</ele>
        <time>2016-12-17T08:09:45Z</time>
      </trkpt>
      <trkpt lat="45.60481" lon="4.65254">
        <ele>367.84</ele>
        <time>2016-12-17T08:10:07Z</time>
      </trkpt>
      <trkpt lat="45.60433" lon="4.65245">
        <ele>368.8</ele>
        <time>2016-12-17T08:10:37Z</time>
      </trkpt>
      <trkpt lat="45.60402" lon="4.65225">
        <ele>375.05</ele>
        <time>2016-12-17T08:11:11Z</time>
      </trkpt>
      <trkpt lat="45.60384" lon="4.65193">
        <ele>378.42</ele>
        <time>2016-12-17T08:11:27Z</time>
      </trkpt>
      <trkpt lat="45.60359" lon="4.65134">
        <ele>382.26</ele>
        <time>2016-12-17T08:11:58Z</time>
      </trkpt>
      <trkpt lat="45.60233" lon="4.65211">
        <ele>383.22</ele>
        <time>2016-12-17T08:14:35Z</time>
      </trkpt>
      <trkpt lat="45.60132" lon="4.65268">
        <ele>379.38</ele>
        <time>2016-12-17T08:15:05Z</time>
      </trkpt>
      <trkpt lat="45.60087" lon="4.65341">
        <ele>376.01</ele>
        <time>2016-12-17T08:15:19Z</time>
      </trkpt>
      <trkpt lat="45.59995" lon="4.65394">
        <ele>372.65</ele>
        <time>2016-12-17T08:15:37Z</time>
      </trkpt>
      <trkpt lat="45.59904" lon="4.65443">
        <ele>366.4</ele>
        <time>2016-12-17T08:15:51Z</time>
      </trkpt>
      <trkpt lat="45.59836" lon="4.65564">
        <ele>362.07</ele>
        <time>2016-12-17T08:16:08Z</time>
      </trkpt>
      <trkpt lat="45.59781" lon="4.65582">
        <ele>357.75</ele>
        <time>2016-12-17T08:16:17Z</time>
      </trkpt>
      <trkpt lat="45.59763" lon="4.65535">
        <ele>354.86</ele>
        <time>2016-12-17T08:16:23Z</time>
      </trkpt>
      <trkpt lat="45.59752" lon="4.65451">
        <ele>351.98</ele>
        <time>2016-12-17T08:16:33Z</time>
      </trkpt>
      <trkpt lat="45.5975" lon="4.65161">
        <ele>362.55</ele>
        <time>2016-12-17T08:18:35Z</time>
      </trkpt>
      <trkpt lat="45.59714" lon="4.64993">
        <ele>366.4</ele>
        <time>2016-12-17T08:19:29Z</time>
      </trkpt>
      <trkpt lat="45.59652" lon="4.64873">
        <ele>375.53</ele>
        <time>2016-12-17T08:20:14Z</time>
      </trkpt>
      <trkpt lat="45.59637" lon="4.64886">
        <ele>376.49</ele>
        <time>2016-12-17T08:20:23Z</time>
      </trkpt>
      <trkpt lat="45.59581" lon="4.64879">
        <ele>381.78</ele>
        <time>2016-12-17T08:21:06Z</time>
      </trkpt>
      <trkpt lat="45.59461" lon="4.64854">
        <ele>388.51</ele>
        <time>2016-12-17T08:22:33Z</time>
      </trkpt>
      <trkpt lat="45.59407" lon="4.64808">
        <ele>393.32</ele>
        <time>2016-12-17T08:23:09Z</time>
      </trkpt>
      <trkpt lat="45.59336" lon="4.64754">
        <ele>397.64</ele>
        <time>2016-12-17T08:23:46Z</time>
      </trkpt>
      <trkpt lat="45.59273" lon="4.64724">
        <ele>398.6</ele>
        <time>2016-12-17T08:24:15Z</time>
      </trkpt>
      <trkpt lat="45.5915" lon="4.64676">
        <ele>400.05</ele>
        <time>2016-12-17T08:25:14Z</time>
      </trkpt>
      <trkpt lat="45.59057" lon="4.64576">
        <ele>403.89</ele>
        <time>2016-12-17T08:26:11Z</time>
      </trkpt>
      <trkpt lat="45.5895" lon="4.64437">
        <ele>410.14</ele>
        <time>2016-12-17T08:27:29Z</time>
      </trkpt>
      <trkpt lat="45.58909" lon="4.64378">
        <ele>413.98</ele>
        <time>2016-12-17T08:28:10Z</time>
      </trkpt>
      <trkpt lat="45.58862" lon="4.64312">
        <ele>418.31</ele>
        <time>2016-12-17T08:29:01Z</time>
      </trkpt>
      <trkpt lat="45.58858" lon="4.64191">
        <ele>421.68</ele>
        <time>2016-12-17T08:29:46Z</time>
      </trkpt>
      <trkpt lat="45.58858" lon="4.64189">
        <ele>421.68</ele>
        <time>2016-12-17T08:30:08Z</time>
      </trkpt>
      <trkpt lat="45.58949" lon="4.64113">
        <ele>420.23</ele>
        <time>2016-12-17T08:32:23Z</time>
      </trkpt>
      <trkpt lat="45.5899" lon="4.64087">
        <ele>416.39</ele>
        <time>2016-12-17T08:32:32Z</time>
      </trkpt>
      <trkpt lat="45.59044" lon="4.64052">
        <ele>410.14</ele>
        <time>2016-12-17T08:32:45Z</time>
      </trkpt>
      <trkpt lat="45.59125" lon="4.63732">
        <ele>413.5</ele>
        <time>2016-12-17T08:33:48Z</time>
      </trkpt>
      <trkpt lat="45.59137" lon="4.63675">
        <ele>412.06</ele>
        <time>2016-12-17T08:33:59Z</time>
      </trkpt>
      <trkpt lat="45.59143" lon="4.63594">
        <ele>403.89</ele>
        <time>2016-12-17T08:34:13Z</time>
      </trkpt>
      <trkpt lat="45.59108" lon="4.6354">
        <ele>399.08</ele>
        <time>2016-12-17T08:34:25Z</time>
      </trkpt>
      <trkpt lat="45.59117" lon="4.63776">
        <ele>411.58</ele>
        <time>2016-12-17T08:38:18Z</time>
      </trkpt>
      <trkpt lat="45.5921" lon="4.63436">
        <ele>411.1</ele>
        <time>2016-12-17T08:38:38Z</time>
      </trkpt>
      <trkpt lat="45.59211" lon="4.63434">
        <ele>416.87</ele>
        <time>2016-12-17T08:39:14Z</time>
      </trkpt>
      <trkpt lat="45.59213" lon="4.63433">
        <ele>417.35</ele>
        <time>2016-12-17T08:39:21Z</time>
      </trkpt>
      <trkpt lat="45.59253" lon="4.6338">
        <ele>419.75</ele>
        <time>2016-12-17T08:39:46Z</time>
      </trkpt>
      <trkpt lat="45.59263" lon="4.63324">
        <ele>424.56</ele>
        <time>2016-12-17T08:40:04Z</time>
      </trkpt>
      <trkpt lat="45.59321" lon="4.63255">
        <ele>426.48</ele>
        <time>2016-12-17T08:40:37Z</time>
      </trkpt>
      <trkpt lat="45.59326" lon="4.63254">
        <ele>426.48</ele>
        <time>2016-12-17T08:41:18Z</time>
      </trkpt>
      <trkpt lat="45.59369" lon="4.63259">
        <ele>417.35</ele>
        <time>2016-12-17T08:41:33Z</time>
      </trkpt>
      <trkpt lat="45.59404" lon="4.63271">
        <ele>408.22</ele>
        <time>2016-12-17T08:41:47Z</time>
      </trkpt>
      <trkpt lat="45.59435" lon="4.63258">
        <ele>398.6</ele>
        <time>2016-12-17T08:42:03Z</time>
      </trkpt>
      <trkpt lat="45.59467" lon="4.63182">
        <ele>388.99</ele>
        <time>2016-12-17T08:42:22Z</time>
      </trkpt>
      <trkpt lat="45.59492" lon="4.63164">
        <ele>391.39</ele>
        <time>2016-12-17T08:42:34Z</time>
      </trkpt>
      <trkpt lat="45.59532" lon="4.63168">
        <ele>397.64</ele>
        <time>2016-12-17T08:42:56Z</time>
      </trkpt>
      <trkpt lat="45.59561" lon="4.63203">
        <ele>401.97</ele>
        <time>2016-12-17T08:43:22Z</time>
      </trkpt>
      <trkpt lat="45.59627" lon="4.63193">
        <ele>405.33</ele>
        <time>2016-12-17T08:43:58Z</time>
      </trkpt>
      <trkpt lat="45.59637" lon="4.63223">
        <ele>405.33</ele>
        <time>2016-12-17T08:44:10Z</time>
      </trkpt>
      <trkpt lat="45.5967" lon="4.63287">
        <ele>412.54</ele>
        <time>2016-12-17T08:47:15Z</time>
      </trkpt>
      <trkpt lat="45.59687" lon="4.63376">
        <ele>414.95</ele>
        <time>2016-12-17T08:47:56Z</time>
      </trkpt>
      <trkpt lat="45.59745" lon="4.63588">
        <ele>410.62</ele>
        <time>2016-12-17T08:48:52Z</time>
      </trkpt>
      <trkpt lat="45.59784" lon="4.63719">
        <ele>408.22</ele>
        <time>2016-12-17T08:49:26Z</time>
      </trkpt>
      <trkpt lat="45.59818" lon="4.63698">
        <ele>410.14</ele>
        <time>2016-12-17T08:49:51Z</time>
      </trkpt>
      <trkpt lat="45.59928" lon="4.63572">
        <ele>424.56</ele>
        <time>2016-12-17T08:51:29Z</time>
      </trkpt>
      <trkpt lat="45.59935" lon="4.63537">
        <ele>428.4</ele>
        <time>2016-12-17T08:51:49Z</time>
      </trkpt>
      <trkpt lat="45.59945" lon="4.63477">
        <ele>434.17</ele>
        <time>2016-12-17T08:52:22Z</time>
      </trkpt>
      <trkpt lat="45.5998" lon="4.63438">
        <ele>437.54</ele>
        <time>2016-12-17T08:52:50Z</time>
      </trkpt>
      <trkpt lat="45.60069" lon="4.63354">
        <ele>449.07</ele>
        <time>2016-12-17T08:53:58Z</time>
      </trkpt>
      <trkpt lat="45.60078" lon="4.63303">
        <ele>453.88</ele>
        <time>2016-12-17T08:54:30Z</time>
      </trkpt>
      <trkpt lat="45.60111" lon="4.63279">
        <ele>459.17</ele>
        <time>2016-12-17T08:55:02Z</time>
      </trkpt>
      <trkpt lat="45.60117" lon="4.63248">
        <ele>462.53</ele>
        <time>2016-12-17T08:55:21Z</time>
      </trkpt>
      <trkpt lat="45.60139" lon="4.63178">
        <ele>470.22</ele>
        <time>2016-12-17T08:56:08Z</time>
      </trkpt>
      <trkpt lat="45.60192" lon="4.63103">
        <ele>482.72</ele>
        <time>2016-12-17T08:57:09Z</time>
      </trkpt>
      <trkpt lat="45.6022" lon="4.62998">
        <ele>494.26</ele>
        <time>2016-12-17T08:58:15Z</time>
      </trkpt>
      <trkpt lat="45.6024" lon="4.63044">
        <ele>498.58</ele>
        <time>2016-12-17T08:58:47Z</time>
      </trkpt>
      <trkpt lat="45.60291" lon="4.63017">
        <ele>503.39</ele>
        <time>2016-12-17T09:01:04Z</time>
      </trkpt>
      <trkpt lat="45.60313" lon="4.63081">
        <ele>500.02</ele>
        <time>2016-12-17T09:01:16Z</time>
      </trkpt>
      <trkpt lat="45.60392" lon="4.63147">
        <ele>494.74</ele>
        <time>2016-12-17T09:01:28Z</time>
      </trkpt>
      <trkpt lat="45.60433" lon="4.63171">
        <ele>492.81</ele>
        <time>2016-12-17T09:01:34Z</time>
      </trkpt>
      <trkpt lat="45.6051" lon="4.6318">
        <ele>497.62</ele>
        <time>2016-12-17T09:01:53Z</time>
      </trkpt>
      <trkpt lat="45.60806" lon="4.63231">
        <ele>495.22</ele>
        <time>2016-12-17T09:03:01Z</time>
      </trkpt>
      <trkpt lat="45.60848" lon="4.63204">
        <ele>490.89</ele>
        <time>2016-12-17T09:03:07Z</time>
      </trkpt>
      <trkpt lat="45.60864" lon="4.63189">
        <ele>488.49</ele>
        <time>2016-12-17T09:03:09Z</time>
      </trkpt>
      <trkpt lat="45.60922" lon="4.63135">
        <ele>477.91</ele>
        <time>2016-12-17T09:03:17Z</time>
      </trkpt>
      <trkpt lat="45.61006" lon="4.63159">
        <ele>469.26</ele>
        <time>2016-12-17T09:04:38Z</time>
      </trkpt>
      <trkpt lat="45.61036" lon="4.63113">
        <ele>464.93</ele>
        <time>2016-12-17T09:05:08Z</time>
      </trkpt>
      <trkpt lat="45.61095" lon="4.6307">
        <ele>452.92</ele>
        <time>2016-12-17T09:05:40Z</time>
      </trkpt>
      <trkpt lat="45.61312" lon="4.62768">
        <ele>482.72</ele>
        <time>2016-12-17T09:09:19Z</time>
      </trkpt>
      <trkpt lat="45.61362" lon="4.62672">
        <ele>494.26</ele>
        <time>2016-12-17T09:10:52Z</time>
      </trkpt>
      <trkpt lat="45.61407" lon="4.62624">
        <ele>501.95</ele>
        <time>2016-12-17T09:11:37Z</time>
      </trkpt>
      <trkpt lat="45.61425" lon="4.62596">
        <ele>504.35</ele>
        <time>2016-12-17T09:11:57Z</time>
      </trkpt>
      <trkpt lat="45.61481" lon="4.62597">
        <ele>509.64</ele>
        <time>2016-12-17T09:12:42Z</time>
      </trkpt>
      <trkpt lat="45.61522" lon="4.62562">
        <ele>517.33</ele>
        <time>2016-12-17T09:13:19Z</time>
      </trkpt>
      <trkpt lat="45.61526" lon="4.62566">
        <ele>517.33</ele>
        <time>2016-12-17T09:13:22Z</time>
      </trkpt>
      <trkpt lat="45.61614" lon="4.62532">
        <ele>528.38</ele>
        <time>2016-12-17T09:14:39Z</time>
      </trkpt>
      <trkpt lat="45.61551" lon="4.62473">
        <ele>532.23</ele>
        <time>2016-12-17T09:15:28Z</time>
      </trkpt>
      <trkpt lat="45.6155" lon="4.62467">
        <ele>532.23</ele>
        <time>2016-12-17T09:15:31Z</time>
      </trkpt>
      <trkpt lat="45.61612" lon="4.62403">
        <ele>552.9</ele>
        <time>2016-12-17T09:17:10Z</time>
      </trkpt>
      <trkpt lat="45.61655" lon="4.62412">
        <ele>559.62</ele>
        <time>2016-12-17T09:18:24Z</time>
      </trkpt>
      <trkpt lat="45.61687" lon="4.62434">
        <ele>558.66</ele>
        <time>2016-12-17T09:18:39Z</time>
      </trkpt>
      <trkpt lat="45.61791" lon="4.62471">
        <ele>566.35</ele>
        <time>2016-12-17T09:19:31Z</time>
      </trkpt>
      <trkpt lat="45.61875" lon="4.62489">
        <ele>580.29</ele>
        <time>2016-12-17T09:20:46Z</time>
      </trkpt>
      <trkpt lat="45.61908" lon="4.62486">
        <ele>582.22</ele>
        <time>2016-12-17T09:21:03Z</time>
      </trkpt>
      <trkpt lat="45.6195" lon="4.62478">
        <ele>577.41</ele>
        <time>2016-12-17T09:24:35Z</time>
      </trkpt>
      <trkpt lat="45.6198" lon="4.62421">
        <ele>574.04</ele>
        <time>2016-12-17T09:24:46Z</time>
      </trkpt>
      <trkpt lat="45.61985" lon="4.62397">
        <ele>571.16</ele>
        <time>2016-12-17T09:24:48Z</time>
      </trkpt>
      <trkpt lat="45.61991" lon="4.62371">
        <ele>569.24</ele>
        <time>2016-12-17T09:24:50Z</time>
      </trkpt>
      <trkpt lat="45.62009" lon="4.62321">
        <ele>566.35</ele>
        <time>2016-12-17T09:24:54Z</time>
      </trkpt>
      <trkpt lat="45.62063" lon="4.62113">
        <ele>557.7</ele>
        <time>2016-12-17T09:25:10Z</time>
      </trkpt>
      <trkpt lat="45.62121" lon="4.61994">
        <ele>556.26</ele>
        <time>2016-12-17T09:25:26Z</time>
      </trkpt>
      <trkpt lat="45.62126" lon="4.61982">
        <ele>556.74</ele>
        <time>2016-12-17T09:25:28Z</time>
      </trkpt>
      <trkpt lat="45.62229" lon="4.61965">
        <ele>564.91</ele>
        <time>2016-12-17T09:26:13Z</time>
      </trkpt>
      <trkpt lat="45.62233" lon="4.61864">
        <ele>578.37</ele>
        <time>2016-12-17T09:27:10Z</time>
      </trkpt>
      <trkpt lat="45.62257" lon="4.61868">
        <ele>578.37</ele>
        <time>2016-12-17T09:27:23Z</time>
      </trkpt>
      <trkpt lat="45.62269" lon="4.61749">
        <ele>592.31</ele>
        <time>2016-12-17T09:28:34Z</time>
      </trkpt>
      <trkpt lat="45.62405" lon="4.61708">
        <ele>597.6</ele>
        <time>2016-12-17T09:29:41Z</time>
      </trkpt>
      <trkpt lat="45.6244" lon="4.6167">
        <ele>602.88</ele>
        <time>2016-12-17T09:30:10Z</time>
      </trkpt>
      <trkpt lat="45.62437" lon="4.61647">
        <ele>606.73</ele>
        <time>2016-12-17T09:30:23Z</time>
      </trkpt>
      <trkpt lat="45.62436" lon="4.6162">
        <ele>612.02</ele>
        <time>2016-12-17T09:30:50Z</time>
      </trkpt>
      <trkpt lat="45.62461" lon="4.61579">
        <ele>618.26</ele>
        <time>2016-12-17T09:31:29Z</time>
      </trkpt>
      <trkpt lat="45.62535" lon="4.6154">
        <ele>622.11</ele>
        <time>2016-12-17T09:33:21Z</time>
      </trkpt>
      <trkpt lat="45.62583" lon="4.61538">
        <ele>620.19</ele>
        <time>2016-12-17T09:33:34Z</time>
      </trkpt>
      <trkpt lat="45.62635" lon="4.61562">
        <ele>624.51</ele>
        <time>2016-12-17T09:34:01Z</time>
      </trkpt>
      <trkpt lat="45.62652" lon="4.61572">
        <ele>627.88</ele>
        <time>2016-12-17T09:34:14Z</time>
      </trkpt>
      <trkpt lat="45.62698" lon="4.61596">
        <ele>635.57</ele>
        <time>2016-12-17T09:34:53Z</time>
      </trkpt>
      <trkpt lat="45.62754" lon="4.61599">
        <ele>640.86</ele>
        <time>2016-12-17T09:35:37Z</time>
      </trkpt>
      <trkpt lat="45.62792" lon="4.61549">
        <ele>644.22</ele>
        <time>2016-12-17T09:36:08Z</time>
      </trkpt>
      <trkpt lat="45.62819" lon="4.61439">
        <ele>655.28</ele>
        <time>2016-12-17T09:37:08Z</time>
      </trkpt>
      <trkpt lat="45.62864" lon="4.61288">
        <ele>668.73</ele>
        <time>2016-12-17T09:38:44Z</time>
      </trkpt>
      <trkpt lat="45.62894" lon="4.61206">
        <ele>674.02</ele>
        <time>2016-12-17T09:39:30Z</time>
      </trkpt>
      <trkpt lat="45.62925" lon="4.61113">
        <ele>678.83</ele>
        <time>2016-12-17T09:40:08Z</time>
      </trkpt>
      <trkpt lat="45.6297" lon="4.6086">
        <ele>685.56</ele>
        <time>2016-12-17T09:41:22Z</time>
      </trkpt>
      <trkpt lat="45.63003" lon="4.60791">
        <ele>684.12</ele>
        <time>2016-12-17T09:41:42Z</time>
      </trkpt>
      <trkpt lat="45.63074" lon="4.60774">
        <ele>685.08</ele>
        <time>2016-12-17T09:42:07Z</time>
      </trkpt>
      <trkpt lat="45.63164" lon="4.60864">
        <ele>694.21</ele>
        <time>2016-12-17T09:43:08Z</time>
      </trkpt>
      <trkpt lat="45.63222" lon="4.60942">
        <ele>702.86</ele>
        <time>2016-12-17T09:44:04Z</time>
      </trkpt>
      <trkpt lat="45.63319" lon="4.6107">
        <ele>711.99</ele>
        <time>2016-12-17T09:45:33Z</time>
      </trkpt>
      <trkpt lat="45.63322" lon="4.61079">
        <ele>711.99</ele>
        <time>2016-12-17T09:45:56Z</time>
      </trkpt>
      <trkpt lat="45.63327" lon="4.61073">
        <ele>713.92</ele>
        <time>2016-12-17T10:00:11Z</time>
      </trkpt>
      <trkpt lat="45.63332" lon="4.61074">
        <ele>713.92</ele>
        <time>2016-12-17T10:00:20Z</time>
      </trkpt>
      <trkpt lat="45.63342" lon="4.61095">
        <ele>712.47</ele>
        <time>2016-12-17T10:00:27Z</time>
      </trkpt>
      <trkpt lat="45.63325" lon="4.61104">
        <ele>708.63</ele>
        <time>2016-12-17T10:00:37Z</time>
      </trkpt>
      <trkpt lat="45.63342" lon="4.61144">
        <ele>702.38</ele>
        <time>2016-12-17T10:00:53Z</time>
      </trkpt>
      <trkpt lat="45.63371" lon="4.6119">
        <ele>692.77</ele>
        <time>2016-12-17T10:01:01Z</time>
      </trkpt>
      <trkpt lat="45.63408" lon="4.6122">
        <ele>681.71</ele>
        <time>2016-12-17T10:01:08Z</time>
      </trkpt>
      <trkpt lat="45.63557" lon="4.61201">
        <ele>668.25</ele>
        <time>2016-12-17T10:01:53Z</time>
      </trkpt>
      <trkpt lat="45.63634" lon="4.61229">
        <ele>670.66</ele>
        <time>2016-12-17T10:02:42Z</time>
      </trkpt>
      <trkpt lat="45.63695" lon="4.61254">
        <ele>665.37</ele>
        <time>2016-12-17T10:03:25Z</time>
      </trkpt>
      <trkpt lat="45.63738" lon="4.61278">
        <ele>660.08</ele>
        <time>2016-12-17T10:03:33Z</time>
      </trkpt>
      <trkpt lat="45.63771" lon="4.61298">
        <ele>654.31</ele>
        <time>2016-12-17T10:03:40Z</time>
      </trkpt>
      <trkpt lat="45.63823" lon="4.61335">
        <ele>643.74</ele>
        <time>2016-12-17T10:03:51Z</time>
      </trkpt>
      <trkpt lat="45.63878" lon="4.61382">
        <ele>636.53</ele>
        <time>2016-12-17T10:04:02Z</time>
      </trkpt>
      <trkpt lat="45.6391" lon="4.61636">
        <ele>641.82</ele>
        <time>2016-12-17T10:23:27Z</time>
      </trkpt>
      <trkpt lat="45.63867" lon="4.61902">
        <ele>640.38</ele>
        <time>2016-12-17T10:24:40Z</time>
      </trkpt>
      <trkpt lat="45.63895" lon="4.62006">
        <ele>635.57</ele>
        <time>2016-12-17T10:24:52Z</time>
      </trkpt>
      <trkpt lat="45.63811" lon="4.62145">
        <ele>634.61</ele>
        <time>2016-12-17T10:25:18Z</time>
      </trkpt>
      <trkpt lat="45.6373" lon="4.62307">
        <ele>628.84</ele>
        <time>2016-12-17T10:25:43Z</time>
      </trkpt>
      <trkpt lat="45.63718" lon="4.62374">
        <ele>624.03</ele>
        <time>2016-12-17T10:25:55Z</time>
      </trkpt>
      <trkpt lat="45.63719" lon="4.62369">
        <ele>624.51</ele>
        <time>2016-12-17T10:26:23Z</time>
      </trkpt>
      <trkpt lat="45.63737" lon="4.6242">
        <ele>621.63</ele>
        <time>2016-12-17T10:27:09Z</time>
      </trkpt>
      <trkpt lat="45.63716" lon="4.62492">
        <ele>620.67</ele>
        <time>2016-12-17T10:27:22Z</time>
      </trkpt>
      <trkpt lat="45.6367" lon="4.62576">
        <ele>618.26</ele>
        <time>2016-12-17T10:27:40Z</time>
      </trkpt>
      <trkpt lat="45.63645" lon="4.62653">
        <ele>613.46</ele>
        <time>2016-12-17T10:27:50Z</time>
      </trkpt>
      <trkpt lat="45.63605" lon="4.62736">
        <ele>603.85</ele>
        <time>2016-12-17T10:28:01Z</time>
      </trkpt>
      <trkpt lat="45.63576" lon="4.62812">
        <ele>595.19</ele>
        <time>2016-12-17T10:28:10Z</time>
      </trkpt>
      <trkpt lat="45.63563" lon="4.62893">
        <ele>586.54</ele>
        <time>2016-12-17T10:28:19Z</time>
      </trkpt>
      <trkpt lat="45.63517" lon="4.63019">
        <ele>566.83</ele>
        <time>2016-12-17T10:29:01Z</time>
      </trkpt>
      <trkpt lat="45.63588" lon="4.6305">
        <ele>556.26</ele>
        <time>2016-12-17T10:29:15Z</time>
      </trkpt>
      <trkpt lat="45.63569" lon="4.63248">
        <ele>534.63</ele>
        <time>2016-12-17T10:29:39Z</time>
      </trkpt>
      <trkpt lat="45.63559" lon="4.63279">
        <ele>531.27</ele>
        <time>2016-12-17T10:29:42Z</time>
      </trkpt>
      <trkpt lat="45.63551" lon="4.63302">
        <ele>528.38</ele>
        <time>2016-12-17T10:29:44Z</time>
      </trkpt>
      <trkpt lat="45.63476" lon="4.63603">
        <ele>513</ele>
        <time>2016-12-17T10:30:20Z</time>
      </trkpt>
      <trkpt lat="45.63472" lon="4.63649">
        <ele>510.6</ele>
        <time>2016-12-17T10:30:25Z</time>
      </trkpt>
      <trkpt lat="45.63471" lon="4.63668">
        <ele>507.23</ele>
        <time>2016-12-17T10:30:28Z</time>
      </trkpt>
      <trkpt lat="45.6345" lon="4.63784">
        <ele>491.37</ele>
        <time>2016-12-17T10:30:45Z</time>
      </trkpt>
      <trkpt lat="45.63429" lon="4.63816">
        <ele>485.12</ele>
        <time>2016-12-17T10:30:49Z</time>
      </trkpt>
      <trkpt lat="45.6333" lon="4.6391">
        <ele>476.95</ele>
        <time>2016-12-17T10:31:16Z</time>
      </trkpt>
      <trkpt lat="45.63382" lon="4.64035">
        <ele>473.11</ele>
        <time>2016-12-17T10:31:56Z</time>
      </trkpt>
      <trkpt lat="45.63367" lon="4.64181">
        <ele>461.57</ele>
        <time>2016-12-17T10:32:11Z</time>
      </trkpt>
      <trkpt lat="45.6342" lon="4.64285">
        <ele>447.63</ele>
        <time>2016-12-17T10:32:25Z</time>
      </trkpt>
      <trkpt lat="45.63436" lon="4.64314">
        <ele>444.75</ele>
        <time>2016-12-17T10:32:28Z</time>
      </trkpt>
      <trkpt lat="45.63447" lon="4.64381">
        <ele>441.38</ele>
        <time>2016-12-17T10:32:33Z</time>
      </trkpt>
      <trkpt lat="45.63428" lon="4.64519">
        <ele>449.07</ele>
        <time>2016-12-17T10:32:53Z</time>
      </trkpt>
      <trkpt lat="45.63445" lon="4.64593">
        <ele>452.44</ele>
        <time>2016-12-17T10:33:08Z</time>
      </trkpt>
      <trkpt lat="45.63398" lon="4.64677">
        <ele>451.96</ele>
        <time>2016-12-17T10:33:34Z</time>
      </trkpt>
      <trkpt lat="45.63218" lon="4.6479">
        <ele>438.02</ele>
        <time>2016-12-17T10:34:19Z</time>
      </trkpt>
      <trkpt lat="45.63095" lon="4.64908">
        <ele>432.73</ele>
        <time>2016-12-17T10:34:43Z</time>
      </trkpt>
      <trkpt lat="45.63052" lon="4.64938">
        <ele>428.89</ele>
        <time>2016-12-17T10:34:52Z</time>
      </trkpt>
      <trkpt lat="45.62974" lon="4.64974">
        <ele>414.95</ele>
        <time>2016-12-17T10:35:08Z</time>
      </trkpt>
      <trkpt lat="45.62927" lon="4.65009">
        <ele>399.08</ele>
        <time>2016-12-17T10:36:15Z</time>
      </trkpt>
      <trkpt lat="45.62922" lon="4.65143">
        <ele>395.24</ele>
        <time>2016-12-17T10:36:35Z</time>
      </trkpt>
      <trkpt lat="45.62913" lon="4.65323">
        <ele>388.03</ele>
        <time>2016-12-17T10:36:49Z</time>
      </trkpt>
      <trkpt lat="45.62913" lon="4.6545">
        <ele>383.22</ele>
        <time>2016-12-17T10:36:58Z</time>
      </trkpt>
      <trkpt lat="45.62859" lon="4.65546">
        <ele>381.3</ele>
        <time>2016-12-17T10:37:08Z</time>
      </trkpt>
      <trkpt lat="45.62806" lon="4.65606">
        <ele>381.3</ele>
        <time>2016-12-17T10:37:17Z</time>
      </trkpt>
      <trkpt lat="45.62754" lon="4.65674">
        <ele>388.03</ele>
        <time>2016-12-17T10:37:34Z</time>
      </trkpt>
      <trkpt lat="45.62742" lon="4.65802">
        <ele>393.32</ele>
        <time>2016-12-17T10:38:04Z</time>
      </trkpt>
      <trkpt lat="45.62745" lon="4.65948">
        <ele>396.68</ele>
        <time>2016-12-17T10:38:36Z</time>
      </trkpt>
      <trkpt lat="45.62739" lon="4.66035">
        <ele>396.2</ele>
        <time>2016-12-17T10:38:51Z</time>
      </trkpt>
      <trkpt lat="45.62664" lon="4.66196">
        <ele>395.72</ele>
        <time>2016-12-17T10:41:31Z</time>
      </trkpt>
      <trkpt lat="45.62621" lon="4.66263">
        <ele>396.2</ele>
        <time>2016-12-17T10:41:41Z</time>
      </trkpt>
      <trkpt lat="45.62572" lon="4.66371">
        <ele>396.2</ele>
        <time>2016-12-17T10:41:55Z</time>
      </trkpt>
      <trkpt lat="45.62569" lon="4.66452">
        <ele>396.68</ele>
        <time>2016-12-17T10:42:07Z</time>
      </trkpt>
      <trkpt lat="45.62566" lon="4.66507">
        <ele>394.28</ele>
        <time>2016-12-17T10:42:15Z</time>
      </trkpt>
      <trkpt lat="45.62534" lon="4.66581">
        <ele>388.51</ele>
        <time>2016-12-17T10:42:22Z</time>
      </trkpt>
      <trkpt lat="45.62392" lon="4.6669">
        <ele>379.38</ele>
        <time>2016-12-17T10:42:51Z</time>
      </trkpt>
      <trkpt lat="45.62357" lon="4.66833">
        <ele>377.94</ele>
        <time>2016-12-17T10:43:11Z</time>
      </trkpt>
      <trkpt lat="45.62164" lon="4.66957">
        <ele>378.9</ele>
        <time>2016-12-17T10:43:47Z</time>
      </trkpt>
      <trkpt lat="45.61984" lon="4.6707">
        <ele>372.17</ele>
        <time>2016-12-17T10:45:47Z</time>
      </trkpt>
      <trkpt lat="45.61985" lon="4.67072">
        <ele>372.17</ele>
        <time>2016-12-17T10:46:16Z</time>
      </trkpt>
      <trkpt lat="45.61929" lon="4.67124">
        <ele>370.24</ele>
        <time>2016-12-17T10:46:48Z</time>
      </trkpt>
      <trkpt lat="45.61903" lon="4.67124">
        <ele>370.73</ele>
        <time>2016-12-17T10:47:04Z</time>
      </trkpt>
      <trkpt lat="45.61866" lon="4.67095">
        <ele>366.88</ele>
        <time>2016-12-17T10:47:35Z</time>
      </trkpt>
      <trkpt lat="45.61842" lon="4.67116">
        <ele>365.44</ele>
        <time>2016-12-17T10:47:42Z</time>
      </trkpt>
      <trkpt lat="45.61766" lon="4.67284">
        <ele>359.19</ele>
        <time>2016-12-17T10:48:07Z</time>
      </trkpt>
      <trkpt lat="45.61722" lon="4.67322">
        <ele>355.83</ele>
        <time>2016-12-17T10:48:33Z</time>
      </trkpt>
      <trkpt lat="45.6172" lon="4.67344">
        <ele>355.83</ele>
        <time>2016-12-17T10:49:17Z</time>
      </trkpt>
      <trkpt lat="45.61721" lon="4.67327">
        <ele>356.31</ele>
        <time>2016-12-17T10:49:49Z</time>
      </trkpt>
    </trkseg>
  </trk>
</gpx>